Time;durP1;ratioP1;P1;durP2;ratioP2;P2;SDS_P1;SDS_P2;PMS_P1;PMS_P2;Temp;Humidity;BMP_temperature;BMP_pressure;BME280_temperature;BME280_humidity;BME280_pressure;Samples;Min_cycle;Max_cycle;Signal;HPM_P1;HPM_P2
2024/04/13 00:00:26;;;;;;;3.30;1.55;;;14.90;98.30;;;;;;5368569;26;20007;-81
2024/04/13 00:02:53;;;;;;;2.20;1.20;;;14.80;98.30;;;;;;5380990;26;20004;-81
2024/04/13 00:05:20;;;;;;;3.70;1.60;;;14.80;98.40;;;;;;5380996;26;20066;-81
2024/04/13 00:07:47;;;;;;;5.05;1.77;;;14.80;98.50;;;;;;5380592;26;20047;-81
2024/04/13 00:10:14;;;;;;;4.10;1.23;;;14.80;98.50;;;;;;5352210;26;20354;-81
2024/04/13 00:12:41;;;;;;;4.30;1.08;;;14.80;98.60;;;;;;5380732;26;20000;-81
2024/04/13 00:15:09;;;;;;;2.83;1.52;;;14.70;98.60;;;;;;5380678;26;20000;-81
2024/04/13 00:17:36;;;;;;;3.00;1.33;;;14.70;98.60;;;;;;5380850;26;20008;-81
2024/04/13 00:20:03;;;;;;;3.78;1.48;;;14.70;98.60;;;;;;5345863;26;20004;-81
2024/04/13 00:22:30;;;;;;;2.90;1.33;;;14.70;98.60;;;;;;5323035;26;20108;-81
2024/04/13 00:25:00;;;;;;;3.42;1.33;;;14.70;98.90;;;;;;5352071;26;20074;-81
2024/04/13 00:27:27;;;;;;;4.13;1.85;;;14.70;98.70;;;;;;5380375;26;20480;-81
2024/04/13 00:29:54;;;;;;;2.60;1.35;;;14.70;98.70;;;;;;5382100;26;20000;-81
2024/04/13 00:32:21;;;;;;;2.35;0.95;;;14.60;98.70;;;;;;5351503;26;20008;-81
2024/04/13 00:34:50;;;;;;;2.03;0.88;;;14.60;98.80;;;;;;5323637;26;20522;-81
2024/04/13 00:37:18;;;;;;;2.80;1.10;;;14.50;98.80;;;;;;5345829;26;20070;-81
2024/04/13 00:39:45;;;;;;;2.42;1.10;;;14.50;99.20;;;;;;5351366;26;20005;-81
2024/04/13 00:42:14;;;;;;;2.25;0.90;;;14.50;99.00;;;;;;5350773;26;20000;-81
2024/04/13 00:44:42;;;;;;;1.40;0.70;;;14.50;99.10;;;;;;5380929;26;20004;-81
2024/04/13 00:47:10;;;;;;;2.25;1.00;;;14.40;99.10;;;;;;5351459;26;20547;-81
2024/04/13 00:49:39;;;;;;;2.38;0.90;;;14.40;99.10;;;;;;5409904;26;20004;-81
2024/04/13 00:52:11;;;;;;;3.03;1.15;;;14.40;99.10;;;;;;5380525;26;20000;-81
2024/04/13 00:54:39;;;;;;;2.10;0.82;;;14.40;99.20;;;;;;5379967;26;20004;-81
2024/04/13 00:57:08;;;;;;;2.35;0.90;;;14.50;99.40;;;;;;5350825;26;20069;-81
2024/04/13 00:59:37;;;;;;;2.55;0.95;;;14.50;99.10;;;;;;5327827;26;20014;-81
2024/04/13 01:02:12;;;;;;;2.30;1.10;;;14.50;99.10;;;;;;5381634;26;20000;-81
2024/04/13 01:04:41;;;;;;;2.60;1.10;;;14.50;99.10;;;;;;5409290;26;20004;-81
2024/04/13 01:07:10;;;;;;;4.30;1.02;;;14.50;99.30;;;;;;5409058;26;19996;-81
2024/04/13 01:09:37;;;;;;;2.38;1.10;;;14.50;99.00;;;;;;5380015;26;20012;-81
2024/04/13 01:12:09;;;;;;;2.15;0.77;;;14.50;99.00;;;;;;5378342;26;20407;-81
2024/04/13 01:14:37;;;;;;;1.60;0.55;;;14.50;99.00;;;;;;5356226;26;20004;-81
2024/04/13 01:17:05;;;;;;;2.17;0.80;;;14.50;99.30;;;;;;5381382;26;20007;-81
2024/04/13 01:19:33;;;;;;;2.38;0.80;;;14.50;99.10;;;;;;5379831;26;20015;-81
2024/04/13 01:22:03;;;;;;;1.80;0.82;;;14.50;99.10;;;;;;5379754;26;20004;-81
2024/04/13 01:24:31;;;;;;;2.55;0.70;;;14.40;99.10;;;;;;5379527;26;20007;-81
2024/04/13 01:26:58;;;;;;;2.03;0.90;;;14.40;99.20;;;;;;5322041;26;20357;-81
2024/04/13 01:29:25;;;;;;;2.20;1.10;;;14.40;99.20;;;;;;5379010;26;20051;-80
2024/04/13 01:31:52;;;;;;;2.60;0.90;;;14.40;99.30;;;;;;5379281;26;20004;-81
2024/04/13 01:34:19;;;;;;;2.13;1.02;;;14.40;99.20;;;;;;5350364;26;19996;-81
2024/04/13 01:36:46;;;;;;;2.75;1.00;;;14.40;99.20;;;;;;5350017;26;20005;-81
2024/04/13 01:39:13;;;;;;;2.35;0.88;;;14.40;99.30;;;;;;5350073;26;20008;-81
2024/04/13 01:41:53;;;;;;;2.17;0.98;;;14.40;99.30;;;;;;5378967;26;20027;-81
2024/04/13 01:44:21;;;;;;;2.40;0.70;;;14.40;99.30;;;;;;5372198;26;19996;-89
2024/04/13 01:46:48;;;;;;;1.67;0.60;;;14.30;99.40;;;;;;5380582;26;20008;-90
2024/04/13 01:49:15;;;;;;;1.67;0.70;;;14.20;99.50;;;;;;5347549;26;20008;-90
2024/04/13 01:51:42;;;;;;;1.38;0.70;;;14.20;99.60;;;;;;5380145;26;20005;-90
2024/04/13 01:54:09;;;;;;;1.70;0.50;;;14.20;99.60;;;;;;5375530;26;20074;-89
2024/04/13 01:56:36;;;;;;;1.75;0.90;;;14.10;99.70;;;;;;5351171;26;20020;-89
2024/04/13 01:59:05;;;;;;;1.88;0.60;;;14.10;99.80;;;;;;5348326;26;20001;-90
2024/04/13 02:01:32;;;;;;;1.70;0.63;;;14.10;99.70;;;;;;5380333;26;20005;-89
2024/04/13 02:03:59;;;;;;;1.58;0.60;;;14.10;99.70;;;;;;5379811;26;20058;-90
2024/04/13 02:06:26;;;;;;;1.50;0.60;;;14.00;99.70;;;;;;5379655;26;20008;-90
2024/04/13 02:08:53;;;;;;;1.80;0.90;;;14.00;99.90;;;;;;5311100;26;20001;-90
2024/04/13 02:11:21;;;;;;;1.60;0.73;;;14.00;99.80;;;;;;5350846;26;20008;-90
2024/04/13 02:13:49;;;;;;;2.90;0.60;;;14.00;99.80;;;;;;5301072;26;20033;-89
2024/04/13 02:16:16;;;;;;;1.30;0.50;;;14.00;99.90;;;;;;5408291;26;20403;-90
2024/04/13 02:18:44;;;;;;;1.48;0.60;;;13.90;99.90;;;;;;5350870;26;20011;-90
2024/04/13 02:21:11;;;;;;;1.27;0.60;;;13.90;99.90;;;;;;5379764;26;20008;-90
2024/04/13 02:23:38;;;;;;;1.33;0.52;;;13.80;99.90;;;;;;5353855;26;20070;-90
2024/04/13 02:26:07;;;;;;;2.40;0.82;;;13.80;99.90;;;;;;5378891;26;20020;-90
2024/04/13 02:28:35;;;;;;;1.20;0.50;;;13.70;99.90;;;;;;5383698;26;20004;-89
2024/04/13 02:31:04;;;;;;;0.90;0.50;;;13.70;99.90;;;;;;5380242;26;20470;-90
2024/04/13 02:33:32;;;;;;;2.00;0.45;;;13.70;99.90;;;;;;5387080;26;20011;-90
2024/04/13 02:36:00;;;;;;;1.50;0.55;;;13.60;99.90;;;;;;5392622;26;20015;-90
2024/04/13 02:38:28;;;;;;;2.70;0.65;;;13.60;99.90;;;;;;5384171;26;20020;-90
2024/04/13 02:40:59;;;;;;;1.10;0.40;;;13.60;99.90;;;;;;5385653;26;20073;-90
2024/04/13 02:43:30;;;;;;;1.10;0.40;;;13.60;99.90;;;;;;5383462;26;20010;-90
2024/04/13 02:46:08;;;;;;;2.13;0.68;;;13.50;99.90;;;;;;5384441;26;20480;-90
2024/04/13 02:48:41;;;;;;;1.27;0.50;;;13.60;99.90;;;;;;5367056;26;20005;-82
2024/04/13 02:51:10;;;;;;;1.73;0.60;;;13.60;99.90;;;;;;5396093;26;20009;-81
2024/04/13 02:53:37;;;;;;;2.67;0.38;;;13.60;99.90;;;;;;5411295;26;20077;-82
2024/04/13 02:56:06;;;;;;;1.95;0.77;;;13.60;99.90;;;;;;5381513;26;20004;-82
2024/04/13 02:58:33;;;;;;;1.58;0.70;;;13.50;99.90;;;;;;5411030;26;20008;-82
2024/04/13 03:01:03;;;;;;;1.73;0.60;;;13.50;99.90;;;;;;5376021;26;20013;-81
2024/04/13 03:03:30;;;;;;;1.17;0.50;;;13.50;99.90;;;;;;5371080;26;20019;-82
2024/04/13 03:06:02;;;;;;;2.38;0.88;;;13.50;99.90;;;;;;5382720;26;20009;-81
2024/04/13 03:08:30;;;;;;;2.00;0.60;;;13.40;99.90;;;;;;5381304;26;20020;-81
2024/04/13 03:11:00;;;;;;;1.85;0.75;;;13.50;99.90;;;;;;5381711;26;20012;-82
2024/04/13 03:13:28;;;;;;;3.13;0.57;;;13.50;99.90;;;;;;5382341;26;20000;-82
2024/04/13 03:16:09;;;;;;;1.50;0.50;;;13.40;99.90;;;;;;5381549;26;20000;-82
2024/04/13 03:18:38;;;;;;;2.05;0.70;;;13.40;99.90;;;;;;5352767;26;20065;-81
2024/04/13 03:21:07;;;;;;;1.40;0.50;;;13.40;99.90;;;;;;5353313;26;20399;-82
2024/04/13 03:23:35;;;;;;;1.58;0.68;;;13.30;99.90;;;;;;5381348;26;20000;-82
2024/04/13 03:26:05;;;;;;;1.25;0.65;;;13.30;99.90;;;;;;5381283;26;20347;-81
2024/04/13 03:28:34;;;;;;;2.67;0.70;;;13.30;99.90;;;;;;5347531;26;20008;-82
2024/04/13 03:31:02;;;;;;;1.33;0.60;;;13.30;99.90;;;;;;5381449;26;20458;-82
2024/04/13 03:33:29;;;;;;;2.00;0.73;;;13.40;99.90;;;;;;5352764;26;20391;-81
2024/04/13 03:36:06;;;;;;;1.88;0.70;;;13.30;99.90;;;;;;5380670;26;20008;-82
2024/04/13 03:38:33;;;;;;;2.22;0.90;;;13.40;99.90;;;;;;5381289;26;20070;-81
2024/04/13 03:41:02;;;;;;;1.40;0.65;;;13.30;99.90;;;;;;5381071;26;20008;-81
2024/04/13 03:43:30;;;;;;;1.83;0.63;;;13.40;99.90;;;;;;5381528;26;20004;-82
2024/04/13 03:45:57;;;;;;;1.80;0.65;;;13.30;99.90;;;;;;5352512;26;20004;-81
2024/04/13 03:48:24;;;;;;;1.88;0.55;;;13.30;99.90;;;;;;5381102;26;20046;-82
2024/04/13 03:50:52;;;;;;;1.77;0.43;;;13.30;99.90;;;;;;5410533;26;20023;-82
2024/04/13 03:53:19;;;;;;;2.70;0.55;;;13.20;99.90;;;;;;5352490;26;20012;-82
2024/04/13 03:55:46;;;;;;;2.08;0.70;;;13.20;99.90;;;;;;5381033;26;20459;-82
2024/04/13 03:58:13;;;;;;;1.83;0.40;;;13.10;99.90;;;;;;5351912;26;20071;-82
2024/04/13 04:00:41;;;;;;;1.17;0.40;;;13.10;99.90;;;;;;5382373;26;20012;-81
2024/04/13 04:03:09;;;;;;;1.40;0.70;;;13.00;99.90;;;;;;5310879;26;20009;-82
2024/04/13 04:05:36;;;;;;;1.10;0.47;;;13.00;99.90;;;;;;5388802;26;20009;-82
2024/04/13 04:08:07;;;;;;;1.27;0.50;;;12.90;99.90;;;;;;5380867;26;20000;-81
2024/04/13 04:10:34;;;;;;;1.45;0.52;;;12.90;99.90;;;;;;5382275;26;20004;-82
2024/04/13 04:13:02;;;;;;;1.80;0.60;;;12.80;99.90;;;;;;5380730;26;20016;-82
2024/04/13 04:15:29;;;;;;;1.30;0.57;;;12.80;99.90;;;;;;5352313;26;20004;-82
2024/04/13 04:17:56;;;;;;;1.52;0.60;;;12.80;99.90;;;;;;5352176;26;20008;-82
2024/04/13 04:20:24;;;;;;;1.13;0.50;;;12.80;99.90;;;;;;5352072;26;20445;-80
2024/04/13 04:22:54;;;;;;;1.58;0.45;;;12.70;99.90;;;;;;5380856;26;20000;-80
2024/04/13 04:25:21;;;;;;;1.42;0.50;;;12.70;99.90;;;;;;5351505;26;19996;-80
2024/04/13 04:27:48;;;;;;;1.83;0.70;;;12.60;99.90;;;;;;5380570;26;20012;-80
2024/04/13 04:30:17;;;;;;;1.60;0.60;;;12.70;99.90;;;;;;5380310;26;20125;-80
2024/04/13 04:32:45;;;;;;;4.82;0.88;;;12.70;99.90;;;;;;5380693;26;20039;-80
2024/04/13 04:35:12;;;;;;;2.33;0.70;;;12.70;99.90;;;;;;5379986;26;20082;-80
2024/04/13 04:37:40;;;;;;;2.45;0.68;;;12.70;99.90;;;;;;5380462;26;20015;-80
2024/04/13 04:40:10;;;;;;;1.65;0.60;;;12.70;99.90;;;;;;5380619;26;20070;-80
2024/04/13 04:42:37;;;;;;;1.77;0.63;;;12.70;99.90;;;;;;5381005;26;20456;-79
2024/04/13 04:45:08;;;;;;;1.90;0.60;;;12.70;99.90;;;;;;5363045;26;20330;-79
2024/04/13 04:47:35;;;;;;;2.00;0.85;;;12.70;99.90;;;;;;5350730;26;20483;-80
2024/04/13 04:50:05;;;;;;;2.00;0.90;;;12.70;99.90;;;;;;5337286;26;20056;-79
2024/04/13 04:52:33;;;;;;;1.67;0.60;;;12.70;99.90;;;;;;5352587;26;20008;-80
2024/04/13 04:55:01;;;;;;;1.88;0.82;;;12.60;99.90;;;;;;5351311;26;20011;-80
2024/04/13 04:57:29;;;;;;;1.75;0.77;;;12.70;99.90;;;;;;5369495;26;20076;-80
2024/04/13 04:59:56;;;;;;;2.60;1.08;;;12.70;99.90;;;;;;5361094;26;20005;-80
2024/04/13 05:02:24;;;;;;;1.90;0.80;;;12.70;99.90;;;;;;5351144;26;19996;-80
2024/04/13 05:04:52;;;;;;;3.35;1.15;;;12.70;99.90;;;;;;5379845;26;20011;-79
2024/04/13 05:07:19;;;;;;;2.75;1.00;;;12.70;99.90;;;;;;5344925;26;20411;-79
2024/04/13 05:09:46;;;;;;;2.22;0.98;;;12.80;99.90;;;;;;5355631;26;20004;-80
2024/04/13 05:12:14;;;;;;;2.78;1.00;;;12.80;99.90;;;;;;5350629;26;19996;-80
2024/04/13 05:14:41;;;;;;;2.13;0.80;;;12.80;99.90;;;;;;5379587;26;20000;-80
2024/04/13 05:17:08;;;;;;;1.67;0.70;;;12.80;99.90;;;;;;5379423;26;20494;-79
2024/04/13 05:19:38;;;;;;;2.13;0.90;;;12.80;99.90;;;;;;5350518;26;20001;-80
2024/04/13 05:22:06;;;;;;;1.95;0.70;;;12.80;99.90;;;;;;5351913;26;20004;-80
2024/04/13 05:24:37;;;;;;;1.88;0.70;;;12.80;99.90;;;;;;5379444;26;20016;-80
2024/04/13 05:27:06;;;;;;;3.95;1.40;;;12.80;99.90;;;;;;5380691;26;20074;-80
2024/04/13 05:29:34;;;;;;;4.07;1.20;;;12.80;99.90;;;;;;5351117;26;20464;-79
2024/04/13 05:32:04;;;;;;;2.78;1.10;;;12.80;99.90;;;;;;5408706;26;20066;-80
2024/04/13 05:34:31;;;;;;;2.67;1.08;;;12.90;99.90;;;;;;5379056;26;20019;-81
2024/04/13 05:37:01;;;;;;;3.20;0.85;;;13.00;99.90;;;;;;5407668;26;20028;-80
2024/04/13 05:39:29;;;;;;;2.97;0.80;;;13.00;99.90;;;;;;5379058;26;20089;-81
2024/04/13 05:41:56;;;;;;;3.15;1.13;;;13.00;99.90;;;;;;5378799;26;20005;-81
2024/04/13 05:44:24;;;;;;;2.33;0.95;;;13.10;99.90;;;;;;5379201;26;20328;-80
2024/04/13 05:46:51;;;;;;;1.98;0.85;;;13.10;99.90;;;;;;5350136;26;20012;-81
2024/04/13 05:49:18;;;;;;;3.85;1.13;;;13.20;99.90;;;;;;5378174;26;20509;-80
2024/04/13 05:51:46;;;;;;;2.72;1.00;;;13.20;99.90;;;;;;5349978;26;20046;-80
2024/04/13 05:54:13;;;;;;;2.45;0.90;;;13.30;99.90;;;;;;5378823;26;20081;-81
2024/04/13 05:56:40;;;;;;;2.60;1.38;;;13.30;99.90;;;;;;5349853;26;20004;-81
2024/04/13 05:59:08;;;;;;;3.53;1.40;;;13.40;99.90;;;;;;5381177;26;20003;-81
2024/04/13 06:01:35;;;;;;;2.15;0.82;;;13.40;99.90;;;;;;5361955;26;20032;-81
2024/04/13 06:04:02;;;;;;;2.05;1.13;;;13.50;99.90;;;;;;5382161;26;20001;-83
2024/04/13 06:06:30;;;;;;;2.10;1.00;;;13.60;99.90;;;;;;5382319;26;20011;-80
2024/04/13 06:08:57;;;;;;;2.00;1.13;;;13.60;99.90;;;;;;5376492;26;20001;-82
2024/04/13 06:11:24;;;;;;;2.80;1.17;;;13.70;99.90;;;;;;5362940;26;20008;-86
2024/04/13 06:13:51;;;;;;;3.67;1.38;;;13.80;99.90;;;;;;5383007;26;20325;-87
2024/04/13 06:16:18;;;;;;;3.00;1.30;;;13.80;99.90;;;;;;5353850;26;20008;-87
2024/04/13 06:18:45;;;;;;;3.22;0.90;;;13.90;99.90;;;;;;5355374;26;20015;-87
2024/04/13 06:21:13;;;;;;;3.30;1.33;;;13.90;99.90;;;;;;5354084;26;20374;-88
2024/04/13 06:23:41;;;;;;;4.28;1.95;;;14.00;99.90;;;;;;5383133;26;19996;-87
2024/04/13 06:26:08;;;;;;;3.42;1.77;;;14.00;99.90;;;;;;5382976;26;20074;-87
2024/04/13 06:28:35;;;;;;;7.63;2.95;;;14.10;99.90;;;;;;5382297;26;20000;-86
2024/04/13 06:31:02;;;;;;;4.28;2.47;;;14.20;99.90;;;;;;5382531;26;20004;-87
2024/04/13 06:33:29;;;;;;;5.97;2.78;;;14.20;99.90;;;;;;5353286;26;20819;-84
2024/04/13 06:35:57;;;;;;;5.53;2.95;;;14.30;99.90;;;;;;5382145;26;20055;-86
2024/04/13 06:38:24;;;;;;;5.82;2.60;;;14.40;99.90;;;;;;5376491;26;20019;-86
2024/04/13 06:40:54;;;;;;;5.30;3.50;;;14.50;99.90;;;;;;5301356;26;20035;-86
2024/04/13 06:43:22;;;;;;;5.78;2.80;;;14.70;99.90;;;;;;5383135;26;20008;-86
2024/04/13 06:45:52;;;;;;;4.28;2.08;;;14.80;99.90;;;;;;5381760;26;20004;-86
2024/04/13 06:48:20;;;;;;;3.75;1.83;;;14.90;99.90;;;;;;5381850;26;20391;-86
2024/04/13 06:50:47;;;;;;;3.65;1.92;;;15.10;99.90;;;;;;5382176;26;20016;-86
2024/04/13 06:53:16;;;;;;;4.25;2.13;;;15.20;99.80;;;;;;5352942;26;20134;-86
2024/04/13 06:55:44;;;;;;;2.67;1.45;;;15.30;99.70;;;;;;5381746;26;20336;-86
2024/04/13 06:58:11;;;;;;;3.78;2.20;;;15.40;99.70;;;;;;5352215;26;20004;-86
2024/04/13 07:00:38;;;;;;;3.45;1.50;;;15.40;99.60;;;;;;5382124;26;20010;-87
2024/04/13 07:03:06;;;;;;;4.07;1.90;;;15.40;99.60;;;;;;5383163;26;20000;-87
2024/04/13 07:05:33;;;;;;;5.03;2.20;;;15.50;99.60;;;;;;5365725;26;20009;-87
2024/04/13 07:08:01;;;;;;;4.80;2.03;;;15.60;99.80;;;;;;5346674;26;20001;-87
2024/04/13 07:10:29;;;;;;;5.18;1.75;;;15.70;99.50;;;;;;5346847;26;20708;-86
2024/04/13 07:12:57;;;;;;;4.45;1.88;;;15.80;99.40;;;;;;5376692;26;20013;-86
2024/04/13 07:15:24;;;;;;;3.40;2.08;;;15.90;99.30;;;;;;5353266;26;20070;-86
2024/04/13 07:17:51;;;;;;;4.28;2.33;;;16.00;99.20;;;;;;5354737;26;20458;-86
2024/04/13 07:20:19;;;;;;;5.57;2.90;;;16.10;99.10;;;;;;5354034;26;20019;-87
2024/04/13 07:22:46;;;;;;;5.03;2.63;;;16.10;99.20;;;;;;5349546;26;20011;-86
2024/04/13 07:25:13;;;;;;;5.47;2.83;;;16.20;98.80;;;;;;5376947;26;20012;-86
2024/04/13 07:27:40;;;;;;;4.43;2.47;;;16.20;98.80;;;;;;5316542;26;20077;-86
2024/04/13 07:30:08;;;;;;;5.60;3.75;;;16.20;98.70;;;;;;5349491;26;20004;-86
2024/04/13 07:32:35;;;;;;;6.68;3.03;;;16.30;98.60;;;;;;5347394;26;20037;-87
2024/04/13 07:35:03;;;;;;;7.30;3.72;;;16.40;98.50;;;;;;5326596;26;20008;-82
2024/04/13 07:37:30;;;;;;;5.18;3.30;;;16.50;98.40;;;;;;5353833;26;20008;-80
2024/04/13 07:39:58;;;;;;;5.88;2.92;;;16.60;98.40;;;;;;5382205;26;20008;-80
2024/04/13 07:42:26;;;;;;;4.35;2.28;;;16.70;98.30;;;;;;5350410;26;20000;-80
2024/04/13 07:44:54;;;;;;;5.70;3.00;;;16.70;98.20;;;;;;5382192;26;20008;-80
2024/04/13 07:47:21;;;;;;;5.80;3.05;;;16.80;98.10;;;;;;5381738;26;19997;-81
2024/04/13 07:49:48;;;;;;;7.30;4.05;;;16.90;97.90;;;;;;5352536;26;20032;-81
2024/04/13 07:52:15;;;;;;;9.60;4.88;;;17.00;97.60;;;;;;5380992;26;20003;-81
2024/04/13 07:54:42;;;;;;;6.72;3.90;;;17.10;97.50;;;;;;5381317;26;20051;-81
2024/04/13 07:57:12;;;;;;;6.22;3.30;;;17.10;97.40;;;;;;5381271;26;19996;-82
2024/04/13 07:59:39;;;;;;;5.65;4.15;;;17.20;97.30;;;;;;5380977;26;19997;-80
2024/04/13 08:02:06;;;;;;;6.65;2.72;;;17.20;97.20;;;;;;5346480;26;20045;-80
2024/04/13 08:04:33;;;;;;;5.45;2.38;;;17.30;97.20;;;;;;5353204;26;20065;-80
2024/04/13 08:07:06;;;;;;;5.90;3.13;;;17.40;97.10;;;;;;5382435;26;20028;-81
2024/04/13 08:09:36;;;;;;;5.18;3.25;;;17.50;97.00;;;;;;5376054;26;20011;-80
2024/04/13 08:12:04;;;;;;;7.05;3.63;;;17.60;96.70;;;;;;5380593;26;20487;-81
2024/04/13 08:14:31;;;;;;;6.63;2.95;;;17.60;96.60;;;;;;5380314;26;19996;-81
2024/04/13 08:16:58;;;;;;;5.47;3.15;;;17.70;96.40;;;;;;5380289;26;20001;-83
2024/04/13 08:19:25;;;;;;;5.72;3.70;;;17.80;96.40;;;;;;5351458;26;19997;-81
2024/04/13 08:21:52;;;;;;;6.95;3.60;;;17.90;96.20;;;;;;5379888;26;20472;-81
2024/04/13 08:24:19;;;;;;;6.65;3.70;;;17.90;96.00;;;;;;5351108;26;19996;-80
2024/04/13 08:26:47;;;;;;;7.03;4.60;;;18.00;96.00;;;;;;5356063;26;20100;-83
2024/04/13 08:29:14;;;;;;;6.28;3.42;;;18.00;95.80;;;;;;5351243;26;20024;-81
2024/04/13 08:31:42;;;;;;;8.52;3.13;;;18.00;95.80;;;;;;5409786;26;20041;-81
2024/04/13 08:34:10;;;;;;;5.72;4.00;;;18.10;95.80;;;;;;5380899;26;20003;-81
2024/04/13 08:36:38;;;;;;;7.53;3.50;;;18.20;95.60;;;;;;5380470;26;20047;-83
2024/04/13 08:39:09;;;;;;;5.90;2.78;;;18.30;95.60;;;;;;5380424;26;20003;-81
2024/04/13 08:41:49;;;;;;;;;;;18.40;95.60;;;;;;5380836;26;20005;-81
2024/04/13 08:44:17;;;;;;;5.90;3.55;;;18.40;95.40;;;;;;5385773;26;19953;-84
2024/04/13 08:46:46;;;;;;;5.60;2.88;;;18.50;95.30;;;;;;5380743;26;20028;-81
2024/04/13 08:49:17;;;;;;;6.47;3.70;;;18.60;95.30;;;;;;5409689;26;20008;-83
2024/04/13 08:51:47;;;;;;;;;;;18.70;94.90;;;;;;5380293;26;20004;-82
2024/04/13 08:54:16;;;;;;;8.45;3.92;;;18.60;94.90;;;;;;5381093;26;19925;-82
2024/04/13 08:56:45;;;;;;;4.32;2.60;;;18.70;94.80;;;;;;5379918;26;20432;-82
2024/04/13 08:59:12;;;;;;;5.80;3.00;;;18.80;94.80;;;;;;5379416;26;20082;-81
2024/04/13 09:01:43;;;;;;;4.72;2.72;;;19.00;94.80;;;;;;5345654;26;20001;-81
2024/04/13 09:04:14;;;;;;;7.15;4.00;;;19.10;94.60;;;;;;5343994;26;20352;-80
2024/04/13 09:06:43;;;;;;;5.25;3.13;;;19.20;94.50;;;;;;5351208;26;20074;-81
2024/04/13 09:09:11;;;;;;;5.85;3.45;;;19.20;94.20;;;;;;5351768;26;20004;-81
2024/04/13 09:11:38;;;;;;;6.28;3.40;;;19.30;94.00;;;;;;5351265;26;20000;-81
2024/04/13 09:14:07;;;;;;;6.45;3.75;;;19.30;93.90;;;;;;5380062;26;20085;-81
2024/04/13 09:16:34;;;;;;;5.68;3.60;;;19.40;93.80;;;;;;5379374;26;20371;-81
2024/04/13 09:19:02;;;;;;;4.03;2.40;;;19.40;93.80;;;;;;5379483;26;20023;-81
2024/04/13 09:21:41;;;;;;;4.38;2.17;;;19.40;93.80;;;;;;5352322;26;20001;-81
2024/04/13 09:24:10;;;;;;;7.43;3.65;;;19.50;93.70;;;;;;5344362;26;20005;-83
2024/04/13 09:26:41;;;;;;;6.82;3.05;;;19.50;93.40;;;;;;5352184;26;20453;-81
2024/04/13 09:29:08;;;;;;;5.25;3.10;;;19.60;93.30;;;;;;5379747;26;20000;-81
2024/04/13 09:31:49;;;;;;;6.68;3.17;;;19.70;93.40;;;;;;5379653;26;20016;-83
2024/04/13 09:34:19;;;;;;;5.00;2.75;;;19.80;92.90;;;;;;5361472;26;20000;-81
2024/04/13 09:36:47;;;;;;;4.57;2.58;;;19.90;92.90;;;;;;5348476;26;20001;-80
2024/04/13 09:39:21;;;;;;;4.85;2.40;;;19.90;92.90;;;;;;5353547;26;20000;-82
2024/04/13 09:41:49;;;;;;;4.10;2.53;;;20.00;92.70;;;;;;5382900;26;19996;-81
2024/04/13 09:44:28;;;;;;;5.72;2.80;;;20.10;92.70;;;;;;5411892;26;20402;-81
2024/04/13 09:46:56;;;;;;;3.97;2.83;;;20.20;92.60;;;;;;5382676;26;20024;-81
2024/04/13 09:49:23;;;;;;;7.70;3.00;;;20.20;92.60;;;;;;5331103;26;20071;-81
2024/04/13 09:51:51;;;;;;;7.38;3.97;;;20.30;92.40;;;;;;5369801;26;20444;-82
2024/04/13 09:54:19;;;;;;;5.97;2.58;;;20.40;92.00;;;;;;5384372;26;20012;-81
2024/04/13 09:56:46;;;;;;;5.57;2.50;;;20.40;92.10;;;;;;5354245;26;20050;-83
2024/04/13 09:59:17;;;;;;;5.80;3.08;;;20.50;92.00;;;;;;5382586;26;20012;-81
2024/04/13 10:01:45;;;;;;;6.38;2.90;;;20.60;91.70;;;;;;5386527;26;20004;-82
2024/04/13 10:04:13;;;;;;;6.85;3.88;;;20.80;91.70;;;;;;5382386;26;20146;-83
2024/04/13 10:06:43;;;;;;;5.45;2.80;;;21.00;91.40;;;;;;5411913;26;20000;-83
2024/04/13 10:09:16;;;;;;;5.63;3.63;;;21.10;91.00;;;;;;5354191;26;20004;-83
2024/04/13 10:11:46;;;;;;;4.95;2.25;;;21.20;91.10;;;;;;5384402;26;20452;-83
2024/04/13 10:14:15;;;;;;;4.45;2.63;;;21.40;91.00;;;;;;5382408;26;20001;-85
2024/04/13 10:16:43;;;;;;;5.40;2.28;;;21.50;90.80;;;;;;5382815;26;20065;-85
2024/04/13 10:19:13;;;;;;;6.90;3.53;;;21.60;90.80;;;;;;5382775;26;20016;-83
2024/04/13 10:21:40;;;;;;;4.97;2.97;;;21.70;90.30;;;;;;5412117;26;20072;-84
2024/04/13 10:24:17;;;;;;;4.35;2.78;;;21.70;89.80;;;;;;5353112;26;20032;-83
2024/04/13 10:26:44;;;;;;;6.18;3.35;;;21.80;89.50;;;;;;5382199;26;20036;-84
2024/04/13 10:29:24;;;;;;;5.13;2.90;;;21.90;88.60;;;;;;5382516;26;20000;-88
2024/04/13 10:31:53;;;;;;;6.40;3.42;;;22.00;88.50;;;;;;5382681;26;20000;-89
2024/04/13 10:34:26;;;;;;;5.35;2.70;;;22.10;87.90;;;;;;5353608;26;20000;-86
2024/04/13 10:36:57;;;;;;;7.15;3.75;;;22.30;87.60;;;;;;5369239;26;20005;-87
2024/04/13 10:39:24;;;;;;;7.10;3.40;;;22.50;86.40;;;;;;5332949;26;20004;-86
2024/04/13 10:41:51;;;;;;;6.90;3.50;;;22.50;85.70;;;;;;5382489;26;20468;-91
2024/04/13 10:44:27;;;;;;;5.22;2.95;;;22.60;85.10;;;;;;5325392;26;19996;-84
2024/04/13 10:46:54;;;;;;;4.88;2.50;;;22.70;84.80;;;;;;5353569;26;20403;-83
2024/04/13 10:49:21;;;;;;;6.78;3.55;;;22.80;84.80;;;;;;5382146;26;20016;-87
2024/04/13 10:51:50;;;;;;;6.43;2.35;;;22.80;83.90;;;;;;5384016;26;20012;-84
2024/04/13 10:54:17;;;;;;;4.90;2.47;;;22.90;84.30;;;;;;5375623;26;20013;-83
2024/04/13 10:56:45;;;;;;;5.43;1.98;;;22.90;83.90;;;;;;5366203;26;20008;-83
2024/04/13 10:59:12;;;;;;;3.70;2.13;;;23.00;84.50;;;;;;5381839;26;20000;-84
2024/04/13 11:01:43;;;;;;;4.65;2.35;;;23.10;84.00;;;;;;5382398;26;19996;-84
2024/04/13 11:04:13;;;;;;;3.63;1.70;;;23.20;83.30;;;;;;5381962;26;20000;-83
2024/04/13 11:06:41;;;;;;;3.72;1.48;;;23.50;83.00;;;;;;5381701;26;20000;-82
2024/04/13 11:09:09;;;;;;;2.85;1.70;;;23.60;82.70;;;;;;5383483;26;20016;-82
2024/04/13 11:11:37;;;;;;;3.15;1.50;;;23.40;82.10;;;;;;5346933;26;20082;-87
2024/04/13 11:14:04;;;;;;;3.83;1.88;;;23.20;81.90;;;;;;5364116;26;20004;-82
2024/04/13 11:16:31;;;;;;;3.65;1.35;;;23.00;81.50;;;;;;5381655;26;20011;-83
2024/04/13 11:18:58;;;;;;;3.78;1.45;;;22.90;82.30;;;;;;5382113;26;20069;-84
2024/04/13 11:21:26;;;;;;;3.20;1.48;;;23.00;81.50;;;;;;5352876;26;20050;-83
2024/04/13 11:23:54;;;;;;;2.92;1.40;;;22.90;80.90;;;;;;5352725;26;19996;-84
2024/04/13 11:26:21;;;;;;;4.25;1.60;;;23.00;80.60;;;;;;5381541;26;20069;-85
2024/04/13 11:28:48;;;;;;;3.00;1.45;;;23.40;80.00;;;;;;5381174;26;20361;-83
2024/04/13 11:31:16;;;;;;;5.47;1.30;;;23.90;78.00;;;;;;5381256;26;20012;-83
2024/04/13 11:33:43;;;;;;;2.88;1.05;;;24.30;77.20;;;;;;5381487;26;20471;-83
2024/04/13 11:36:18;;;;;;;3.15;1.20;;;24.40;75.60;;;;;;5381075;26;20019;-84
2024/04/13 11:38:46;;;;;;;4.80;1.27;;;24.40;74.70;;;;;;5411686;26;20011;-92
2024/04/13 11:41:16;;;;;;;3.40;0.85;;;24.60;74.90;;;;;;5383397;26;20015;-91
2024/04/13 11:43:43;;;;;;;3.70;1.10;;;24.70;74.60;;;;;;5383940;26;20008;-91
2024/04/13 11:46:10;;;;;;;2.92;1.08;;;24.80;73.00;;;;;;5382490;26;20010;-91
2024/04/13 11:48:37;;;;;;;4.90;1.85;;;24.80;71.90;;;;;;5382933;26;20007;-91
2024/04/13 11:51:06;;;;;;;5.40;1.30;;;24.70;69.10;;;;;;5352782;26;20057;-91
2024/04/13 11:53:37;;;;;;;2.20;1.00;;;24.60;69.70;;;;;;5330449;26;20000;-89
2024/04/13 11:56:07;;;;;;;4.45;1.10;;;24.70;69.60;;;;;;5349757;26;20056;-90
2024/04/13 11:58:34;;;;;;;2.90;1.20;;;24.70;69.20;;;;;;5325495;26;20070;-90
2024/04/13 12:01:02;;;;;;;4.50;1.70;;;24.60;67.90;;;;;;5328984;26;20019;-90
2024/04/13 12:03:31;;;;;;;3.35;1.23;;;24.60;67.80;;;;;;5383441;26;20001;-87
2024/04/13 12:05:58;;;;;;;3.53;1.00;;;24.70;67.60;;;;;;5351257;26;20012;-87
2024/04/13 12:08:28;;;;;;;2.45;0.90;;;24.70;67.70;;;;;;5381181;26;20004;-87
2024/04/13 12:10:57;;;;;;;2.58;0.77;;;24.70;68.10;;;;;;5381060;26;20012;-87
2024/04/13 12:13:25;;;;;;;2.70;0.82;;;24.60;67.80;;;;;;5353251;26;20012;-88
2024/04/13 12:15:52;;;;;;;2.47;0.90;;;24.40;68.30;;;;;;5380502;26;20004;-80
2024/04/13 12:18:20;;;;;;;2.25;0.80;;;24.30;67.60;;;;;;5374884;26;20017;-80
2024/04/13 12:20:47;;;;;;;2.13;0.95;;;24.10;68.10;;;;;;5333504;26;20442;-81
2024/04/13 12:23:14;;;;;;;3.92;1.00;;;24.00;68.60;;;;;;5343748;26;20001;-81
2024/04/13 12:25:42;;;;;;;2.78;1.10;;;24.00;67.90;;;;;;5320962;26;19997;-81
2024/04/13 12:28:09;;;;;;;1.42;0.80;;;23.90;67.80;;;;;;5397773;26;20015;-81
2024/04/13 12:30:36;;;;;;;3.70;1.10;;;23.80;67.40;;;;;;5380664;26;20069;-81
2024/04/13 12:33:04;;;;;;;1.42;0.88;;;23.80;68.00;;;;;;5380930;26;20004;-81
2024/04/13 12:35:31;;;;;;;3.30;1.10;;;23.80;67.70;;;;;;5382161;26;20011;-80
2024/04/13 12:38:00;;;;;;;1.70;0.70;;;23.80;66.10;;;;;;5348668;26;20000;-80
2024/04/13 12:40:29;;;;;;;2.50;0.90;;;23.70;66.10;;;;;;5352368;26;20832;-81
2024/04/13 12:42:56;;;;;;;4.05;0.88;;;23.70;67.00;;;;;;5380437;26;20333;-82
2024/04/13 12:45:23;;;;;;;2.13;1.00;;;23.80;66.60;;;;;;5380220;26;20011;-80
2024/04/13 12:47:51;;;;;;;2.35;1.00;;;23.80;67.10;;;;;;5379970;26;20015;-81
2024/04/13 12:50:18;;;;;;;3.20;1.17;;;23.80;66.70;;;;;;5380716;26;20346;-81
2024/04/13 12:52:46;;;;;;;2.35;1.08;;;23.90;67.10;;;;;;5370509;26;20059;-81